Time;durP1;ratioP1;P1;durP2;ratioP2;P2;SDS_P1;SDS_P2;PMS_P1;PMS_P2;Temp;Humidity;BMP_temperature;BMP_pressure;BME280_temperature;BME280_humidity;BME280_pressure;Samples;Min_cycle;Max_cycle;Signal;HPM_P1;HPM_P2
2023/06/07 00:01:33;;;;;;;;;;;19.90;71.50;;;;;;5009252;28;93076;-46
2023/06/07 00:03:59;;;;;;;;;;;19.90;71.50;;;;;;5011139;28;93134;-45
2023/06/07 00:06:25;;;;;;;;;;;19.90;71.40;;;;;;5011903;28;92141;-45
2023/06/07 00:08:50;;;;;;;;;;;19.90;71.50;;;;;;5009781;28;92257;-46
2023/06/07 00:11:16;;;;;;;;;;;19.90;71.50;;;;;;5012441;28;93280;-46
2023/06/07 00:13:42;;;;;;;;;;;19.90;71.50;;;;;;5010979;28;92130;-46
2023/06/07 00:16:07;;;;;;;;;;;19.90;71.50;;;;;;5009166;28;92527;-46
2023/06/07 00:18:33;;;;;;;;;;;19.90;71.50;;;;;;5015523;28;92513;-47
2023/06/07 00:20:58;;;;;;;;;;;19.90;71.50;;;;;;5010591;28;93605;-46
2023/06/07 00:23:26;;;;;;;;;;;19.90;71.50;;;;;;5009798;28;93222;-45
2023/06/07 00:25:52;;;;;;;;;;;19.90;71.40;;;;;;5011469;28;93127;-45
2023/06/07 00:28:17;;;;;;;;;;;19.90;71.50;;;;;;5009681;28;92578;-46
2023/06/07 00:30:43;;;;;;;;;;;19.80;71.40;;;;;;5010213;28;93221;-46
2023/06/07 00:33:08;;;;;;;;;;;19.80;71.50;;;;;;5012081;28;92122;-46
2023/06/07 00:35:34;;;;;;;;;;;19.80;71.50;;;;;;5010085;28;92047;-45
2023/06/07 00:37:59;;;;;;;;;;;19.80;71.50;;;;;;5010182;28;93091;-47
2023/06/07 00:40:25;;;;;;;;;;;19.80;71.50;;;;;;5015222;28;92008;-47
2023/06/07 00:42:50;;;;;;;;;;;19.80;71.50;;;;;;5011306;28;92570;-46
2023/06/07 00:45:16;;;;;;;;;;;19.80;71.50;;;;;;5010210;28;92208;-45
2023/06/07 00:47:41;;;;;;;;;;;19.80;71.60;;;;;;5010053;28;92577;-46
2023/06/07 00:50:07;;;;;;;;;;;19.70;71.40;;;;;;5010883;28;93512;-45
2023/06/07 00:52:34;;;;;;;;;;;19.80;71.50;;;;;;5009536;28;92192;-46
2023/06/07 00:55:01;;;;;;;;;;;19.70;71.60;;;;;;5010508;28;92094;-46
2023/06/07 00:57:27;;;;;;;;;;;19.70;71.50;;;;;;5009535;28;94837;-46
2023/06/07 00:59:53;;;;;;;;;;;19.70;71.50;;;;;;5014735;28;92177;-46
2023/06/07 01:02:18;;;;;;;;;;;19.70;71.50;;;;;;5010107;28;93259;-46
2023/06/07 01:04:44;;;;;;;;;;;19.70;71.50;;;;;;5009022;28;92194;-45
2023/06/07 01:07:11;;;;;;;;;;;19.70;71.60;;;;;;4993979;28;93312;-46
2023/06/07 01:09:36;;;;;;;;;;;19.70;71.50;;;;;;5009514;28;93050;-46
2023/06/07 01:12:03;;;;;;;;;;;19.70;71.50;;;;;;5011149;28;92749;-46
2023/06/07 01:14:30;;;;;;;;;;;19.70;71.50;;;;;;5007382;28;96284;-45
2023/06/07 01:16:57;;;;;;;;;;;19.70;71.50;;;;;;5010151;28;93202;-46
2023/06/07 01:19:23;;;;;;;;;;;19.70;71.60;;;;;;5010911;28;92152;-45
2023/06/07 01:21:54;;;;;;;;;;;19.60;71.50;;;;;;5011027;28;92088;-46
2023/06/07 01:24:20;;;;;;;;;;;19.60;71.50;;;;;;4991734;28;92117;-47
2023/06/07 01:26:53;;;;;;;;;;;19.60;71.50;;;;;;5011157;28;92215;-46
2023/06/07 01:29:19;;;;;;;;;;;19.60;71.50;;;;;;5009890;28;93369;-46
2023/06/07 01:31:46;;;;;;;;;;;19.60;71.50;;;;;;5009729;28;91895;-45
2023/06/07 01:34:12;;;;;;;;;;;19.60;71.50;;;;;;5011381;28;92125;-45
2023/06/07 01:36:39;;;;;;;;;;;19.60;71.50;;;;;;5008768;28;93151;-46
2023/06/07 01:39:05;;;;;;;;;;;19.60;71.60;;;;;;5008563;28;93077;-46
2023/06/07 01:41:31;;;;;;;;;;;19.50;71.60;;;;;;5011238;28;93396;-46
2023/06/07 01:43:58;;;;;;;;;;;19.50;71.60;;;;;;5013180;28;92614;-46
2023/06/07 01:46:24;;;;;;;;;;;19.50;71.50;;;;;;5009634;28;92165;-46
2023/06/07 01:48:49;;;;;;;;;;;19.50;71.60;;;;;;5007810;28;93698;-46
2023/06/07 01:51:15;;;;;;;;;;;19.50;71.50;;;;;;5010699;28;92598;-46
2023/06/07 01:53:41;;;;;;;;;;;19.50;71.50;;;;;;5009539;28;92304;-46
2023/06/07 01:56:36;;;;;;;;;;;19.50;71.50;;;;;;5008647;28;92452;-46
2023/06/07 01:59:07;;;;;;;;;;;19.50;71.50;;;;;;4984878;28;92251;-45
2023/06/07 02:01:33;;;;;;;;;;;19.50;71.60;;;;;;5010269;28;92608;-45
2023/06/07 02:04:00;;;;;;;;;;;19.50;71.60;;;;;;5006941;28;93112;-45
2023/06/07 02:06:33;;;;;;;;;;;19.50;71.50;;;;;;5013266;28;92003;-46
2023/06/07 02:09:01;;;;;;;;;;;19.40;71.60;;;;;;5010231;28;93007;-45
2023/06/07 02:11:27;;;;;;;;;;;19.40;71.60;;;;;;5008291;28;92102;-45
2023/06/07 02:13:53;;;;;;;;;;;19.40;71.60;;;;;;5009936;28;92481;-46
2023/06/07 02:16:32;;;;;;;;;;;19.40;71.60;;;;;;5007738;28;92980;-46
2023/06/07 02:19:01;;;;;;;;;;;19.40;71.60;;;;;;5009571;28;92177;-46
2023/06/07 02:21:27;;;;;;;;;;;19.40;71.60;;;;;;5008186;28;92591;-45
2023/06/07 02:23:52;;;;;;;;;;;19.40;71.60;;;;;;5009415;28;93331;-47
2023/06/07 02:26:20;;;;;;;;;;;19.40;71.60;;;;;;5009369;28;92152;-46
2023/06/07 02:28:45;;;;;;;;;;;19.40;71.60;;;;;;5008789;28;93640;-46
2023/06/07 02:31:11;;;;;;;;;;;19.30;71.60;;;;;;5010251;28;92126;-46
2023/06/07 02:33:36;;;;;;;;;;;19.30;71.60;;;;;;5009331;28;92361;-45
2023/06/07 02:36:02;;;;;;;;;;;19.30;71.60;;;;;;5007391;28;93196;-45
2023/06/07 02:38:28;;;;;;;;;;;19.30;71.60;;;;;;5010062;28;92753;-45
2023/06/07 02:40:55;;;;;;;;;;;19.30;71.50;;;;;;5008502;28;92469;-45
2023/06/07 02:43:20;;;;;;;;;;;19.30;71.60;;;;;;5009082;28;92858;-46
2023/06/07 02:45:46;;;;;;;;;;;19.30;71.60;;;;;;5007540;28;91485;-46
2023/06/07 02:48:15;;;;;;;;;;;19.30;71.60;;;;;;5012105;28;92154;-47
2023/06/07 02:50:40;;;;;;;;;;;19.30;71.50;;;;;;5009481;28;92164;-45
2023/06/07 02:53:07;;;;;;;;;;;19.30;71.50;;;;;;5006894;28;92954;-46
2023/06/07 02:55:33;;;;;;;;;;;19.20;71.50;;;;;;5008719;28;93025;-45
2023/06/07 02:57:58;;;;;;;;;;;19.30;71.60;;;;;;5009294;28;92157;-46
2023/06/07 03:00:24;;;;;;;;;;;19.20;71.60;;;;;;5008953;28;92576;-45
2023/06/07 03:02:49;;;;;;;;;;;19.20;71.60;;;;;;5007083;28;93053;-46
2023/06/07 03:05:15;;;;;;;;;;;19.20;71.70;;;;;;5008465;28;92201;-45
2023/06/07 03:07:40;;;;;;;;;;;19.20;71.60;;;;;;5009780;28;92016;-46
2023/06/07 03:10:06;;;;;;;;;;;19.20;71.60;;;;;;5009499;28;92616;-47
2023/06/07 03:12:32;;;;;;;;;;;19.20;71.80;;;;;;5006835;28;92246;-46
2023/06/07 03:14:57;;;;;;;;;;;19.20;71.80;;;;;;5008797;28;92989;-46
2023/06/07 03:17:23;;;;;;;;;;;19.20;71.70;;;;;;5006035;28;93102;-47
2023/06/07 03:19:49;;;;;;;;;;;19.10;71.60;;;;;;5007597;28;93238;-46
2023/06/07 03:22:14;;;;;;;;;;;19.10;71.70;;;;;;5007687;28;92909;-47
2023/06/07 03:24:40;;;;;;;;;;;19.10;71.70;;;;;;5010596;28;92292;-45
2023/06/07 03:27:06;;;;;;;;;;;19.10;71.70;;;;;;5006951;28;92388;-46
2023/06/07 03:29:31;;;;;;;;;;;19.10;71.70;;;;;;5008052;28;93323;-45
2023/06/07 03:31:57;;;;;;;;;;;19.10;71.70;;;;;;5012879;28;92120;-46
2023/06/07 03:34:23;;;;;;;;;;;19.10;71.70;;;;;;5009933;28;92650;-46
2023/06/07 03:36:49;;;;;;;;;;;19.10;71.70;;;;;;5007745;28;92217;-45
2023/06/07 03:39:14;;;;;;;;;;;19.10;71.70;;;;;;5007909;28;92352;-45
2023/06/07 03:41:40;;;;;;;;;;;19.00;71.70;;;;;;5008698;28;93858;-48
2023/06/07 03:44:05;;;;;;;;;;;19.10;71.80;;;;;;5008434;28;92220;-46
2023/06/07 03:46:31;;;;;;;;;;;19.10;71.70;;;;;;5008328;28;92398;-46
2023/06/07 03:48:56;;;;;;;;;;;19.10;71.70;;;;;;5006783;28;93322;-46
2023/06/07 03:51:22;;;;;;;;;;;19.10;71.70;;;;;;5008054;28;92442;-46
2023/06/07 03:53:48;;;;;;;;;;;19.00;71.70;;;;;;5009118;28;92481;-46
2023/06/07 03:56:14;;;;;;;;;;;19.00;71.70;;;;;;5012738;28;92243;-46
2023/06/07 03:58:39;;;;;;;;;;;19.00;71.60;;;;;;5013372;28;92363;-46
2023/06/07 04:01:05;;;;;;;;;;;19.00;71.70;;;;;;5004668;28;94132;-48
2023/06/07 04:03:30;;;;;;;;;;;19.00;71.70;;;;;;5009960;28;92276;-45
2023/06/07 04:05:59;;;;;;;;;;;19.00;71.70;;;;;;5009428;28;93058;-45
2023/06/07 04:08:25;;;;;;;;;;;19.00;71.80;;;;;;5009399;28;94616;-45
2023/06/07 04:10:51;;;;;;;;;;;19.00;71.70;;;;;;5008376;28;92190;-45
2023/06/07 04:13:16;;;;;;;;;;;19.00;71.80;;;;;;5009530;28;92548;-45
2023/06/07 04:15:45;;;;;;;;;;;19.00;72.30;;;;;;5011878;28;93148;-45
2023/06/07 04:18:10;;;;;;;;;;;19.00;71.70;;;;;;5010699;28;92321;-45
2023/06/07 04:20:36;;;;;;;;;;;19.00;71.70;;;;;;5007088;28;93280;-46
2023/06/07 04:23:01;;;;;;;;;;;19.00;71.70;;;;;;5008042;28;93019;-47
2023/06/07 04:25:32;;;;;;;;;;;18.90;71.80;;;;;;5011658;28;92060;-47
2023/06/07 04:28:00;;;;;;;;;;;18.90;71.80;;;;;;5008827;28;93043;-47
2023/06/07 04:30:34;;;;;;;;;;;18.90;71.70;;;;;;5008235;28;93688;-46
2023/06/07 04:33:08;;;;;;;;;;;18.90;71.80;;;;;;5009291;28;93328;-46
2023/06/07 04:35:36;;;;;;;;;;;18.90;71.70;;;;;;5009846;28;93233;-46
2023/06/07 04:38:02;;;;;;;;;;;18.90;71.80;;;;;;5012327;28;93778;-47
2023/06/07 04:40:28;;;;;;;;;;;18.90;71.70;;;;;;5007268;28;93411;-45
2023/06/07 04:43:06;;;;;;;;;;;18.90;71.70;;;;;;5007294;28;92168;-46
2023/06/07 04:45:32;;;;;;;;;;;18.90;71.60;;;;;;5012211;28;92335;-46
2023/06/07 04:47:58;;;;;;;;;;;18.90;71.70;;;;;;5009900;28;92127;-45
2023/06/07 04:50:24;;;;;;;;;;;18.90;71.80;;;;;;5003786;28;92900;-46
2023/06/07 04:52:50;;;;;;;;;;;18.90;71.90;;;;;;5008174;28;93696;-46
2023/06/07 04:55:16;;;;;;;;;;;18.90;71.80;;;;;;5010115;28;94101;-47
2023/06/07 04:57:45;;;;;;;;;;;18.90;71.70;;;;;;5010740;28;92921;-46
2023/06/07 05:00:12;;;;;;;;;;;18.90;71.80;;;;;;5011268;28;93210;-46
2023/06/07 05:02:44;;;;;;;;;;;18.90;71.80;;;;;;5007551;28;92553;-45
2023/06/07 05:05:09;;;;;;;;;;;18.90;71.70;;;;;;5011980;28;92431;-47
2023/06/07 05:07:35;;;;;;;;;;;18.90;71.80;;;;;;5007974;28;93083;-47
2023/06/07 05:10:00;;;;;;;;;;;18.80;71.70;;;;;;5008441;28;93092;-46
2023/06/07 05:12:26;;;;;;;;;;;18.90;71.80;;;;;;5008167;28;92368;-46
2023/06/07 05:14:51;;;;;;;;;;;18.80;71.80;;;;;;5010264;28;93242;-46
2023/06/07 05:17:19;;;;;;;;;;;18.80;71.80;;;;;;5006682;28;92218;-46
2023/06/07 05:19:44;;;;;;;;;;;18.80;71.80;;;;;;5009708;28;93662;-47
2023/06/07 05:22:10;;;;;;;;;;;18.80;71.70;;;;;;5011373;28;92165;-45
2023/06/07 05:24:35;;;;;;;;;;;18.80;71.80;;;;;;5007640;28;92419;-46
2023/06/07 05:27:01;;;;;;;;;;;18.90;71.80;;;;;;5007551;28;93152;-46
2023/06/07 05:29:26;;;;;;;;;;;18.80;71.70;;;;;;5007272;28;92226;-46
2023/06/07 05:31:52;;;;;;;;;;;18.80;71.80;;;;;;5011563;28;92383;-46
2023/06/07 05:34:17;;;;;;;;;;;18.80;71.80;;;;;;5011195;28;92924;-45
2023/06/07 05:36:43;;;;;;;;;;;18.90;71.80;;;;;;5007837;28;91529;-45
2023/06/07 05:39:09;;;;;;;;;;;18.80;71.70;;;;;;5009800;28;92018;-47
2023/06/07 05:41:36;;;;;;;;;;;18.80;71.80;;;;;;5013522;28;93235;-46
2023/06/07 05:44:02;;;;;;;;;;;18.80;71.80;;;;;;5005066;28;94906;-46
2023/06/07 05:46:27;;;;;;;;;;;18.80;71.80;;;;;;5002556;28;93485;-46
2023/06/07 05:48:53;;;;;;;;;;;18.80;71.80;;;;;;5005866;28;92185;-46
2023/06/07 05:51:18;;;;;;;;;;;18.80;71.80;;;;;;5009543;28;92311;-47
2023/06/07 05:53:44;;;;;;;;;;;18.80;71.80;;;;;;5008246;28;93182;-46
2023/06/07 05:56:11;;;;;;;;;;;18.80;71.90;;;;;;5003955;28;92243;-47
2023/06/07 05:58:37;;;;;;;;;;;18.80;71.90;;;;;;5005971;28;92273;-46
2023/06/07 06:01:05;;;;;;;;;;;18.80;71.80;;;;;;5009106;28;92397;-46
2023/06/07 06:03:30;;;;;;;;;;;18.80;71.90;;;;;;5012231;28;93310;-46
2023/06/07 06:05:57;;;;;;;;;;;18.80;71.90;;;;;;5009631;28;93831;-47
2023/06/07 06:08:22;;;;;;;;;;;18.80;71.90;;;;;;5005984;28;93216;-46
2023/06/07 06:10:48;;;;;;;;;;;18.70;71.80;;;;;;5010836;28;92967;-46
2023/06/07 06:13:13;;;;;;;;;;;18.70;71.90;;;;;;5002697;28;92174;-45
2023/06/07 06:15:39;;;;;;;;;;;18.70;71.80;;;;;;5009919;28;92833;-45
2023/06/07 06:18:04;;;;;;;;;;;18.80;72.00;;;;;;5007732;28;94166;-45
2023/06/07 06:20:33;;;;;;;;;;;18.80;72.00;;;;;;5007281;28;92270;-46
2023/06/07 06:22:59;;;;;;;;;;;18.70;72.00;;;;;;5004472;28;92186;-46
2023/06/07 06:25:25;;;;;;;;;;;18.70;72.00;;;;;;5012470;28;92772;-45
2023/06/07 06:27:51;;;;;;;;;;;18.70;72.10;;;;;;5007619;28;92359;-46
2023/06/07 06:30:16;;;;;;;;;;;18.70;72.00;;;;;;5008650;28;92542;-47
2023/06/07 06:32:42;;;;;;;;;;;18.70;72.00;;;;;;5006778;28;94247;-46
2023/06/07 06:35:08;;;;;;;;;;;18.70;72.10;;;;;;5003913;28;92288;-46
2023/06/07 06:37:33;;;;;;;;;;;18.70;72.20;;;;;;5010016;28;92348;-45
2023/06/07 06:39:59;;;;;;;;;;;18.70;72.20;;;;;;5007136;28;94006;-46
2023/06/07 06:42:24;;;;;;;;;;;18.70;72.20;;;;;;5007345;28;92368;-46
2023/06/07 06:44:50;;;;;;;;;;;18.70;72.10;;;;;;4992931;28;93198;-46
2023/06/07 06:47:16;;;;;;;;;;;18.70;72.10;;;;;;5010981;28;93095;-45
2023/06/07 06:49:41;;;;;;;;;;;18.70;72.10;;;;;;5009825;28;92613;-46
2023/06/07 06:52:07;;;;;;;;;;;18.70;72.10;;;;;;5005840;28;93173;-46
2023/06/07 06:54:32;;;;;;;;;;;18.70;72.20;;;;;;5005756;28;92204;-47
2023/06/07 06:56:58;;;;;;;;;;;18.70;72.20;;;;;;5007967;28;93701;-46
2023/06/07 06:59:23;;;;;;;;;;;18.70;72.10;;;;;;5011017;28;93249;-46
2023/06/07 07:01:50;;;;;;;;;;;18.70;72.20;;;;;;5004901;28;92386;-45
2023/06/07 07:04:16;;;;;;;;;;;18.70;72.10;;;;;;5007242;28;92571;-45
2023/06/07 07:06:42;;;;;;;;;;;18.70;72.10;;;;;;5012371;28;93208;-46
2023/06/07 07:09:09;;;;;;;;;;;18.70;72.20;;;;;;5011605;28;92408;-45
2023/06/07 07:11:35;;;;;;;;;;;18.70;72.20;;;;;;5005050;28;93121;-46
2023/06/07 07:14:00;;;;;;;;;;;18.70;72.20;;;;;;5011030;28;91466;-47
2023/06/07 07:16:26;;;;;;;;;;;18.70;72.10;;;;;;5007064;28;92017;-46
2023/06/07 07:18:51;;;;;;;;;;;18.70;72.10;;;;;;5003103;28;93168;-46
2023/06/07 07:21:17;;;;;;;;;;;18.80;72.10;;;;;;4986666;28;93892;-46
2023/06/07 07:23:43;;;;;;;;;;;18.70;72.00;;;;;;5006850;28;93459;-47
2023/06/07 07:26:08;;;;;;;;;;;18.80;72.00;;;;;;5009471;28;93023;-46
2023/06/07 07:28:36;;;;;;;;;;;18.80;72.00;;;;;;5013532;28;92179;-47
2023/06/07 07:31:01;;;;;;;;;;;18.80;72.10;;;;;;5010648;28;93126;-47
2023/06/07 07:33:27;;;;;;;;;;;18.80;72.10;;;;;;5009423;28;92079;-46
2023/06/07 07:35:53;;;;;;;;;;;18.70;72.10;;;;;;5011668;28;92533;-46
2023/06/07 07:38:18;;;;;;;;;;;18.80;72.10;;;;;;5011118;28;92327;-46
2023/06/07 07:40:44;;;;;;;;;;;18.80;72.10;;;;;;5013167;28;92160;-46
2023/06/07 07:43:10;;;;;;;;;;;18.80;72.10;;;;;;5011078;28;92403;-46
2023/06/07 07:45:36;;;;;;;;;;;18.80;72.10;;;;;;5010024;28;94064;-45
2023/06/07 07:48:02;;;;;;;;;;;18.80;72.10;;;;;;5013076;28;93224;-46
2023/06/07 07:50:28;;;;;;;;;;;18.80;72.10;;;;;;5012937;28;92450;-45
2023/06/07 07:52:54;;;;;;;;;;;18.80;72.10;;;;;;5013463;28;92175;-46
2023/06/07 07:55:23;;;;;;;;;;;18.80;72.10;;;;;;5010221;28;92344;-45
2023/06/07 07:57:48;;;;;;;;;;;18.80;72.10;;;;;;5009716;28;93261;-46
2023/06/07 08:00:14;;;;;;;;;;;18.80;72.10;;;;;;5011683;28;92214;-46
2023/06/07 08:02:40;;;;;;;;;;;18.90;72.20;;;;;;5012999;28;92383;-46
2023/06/07 08:05:06;;;;;;;;;;;18.80;72.20;;;;;;5009421;28;93214;-47
2023/06/07 08:07:32;;;;;;;;;;;18.90;72.20;;;;;;5010622;28;92747;-46
2023/06/07 08:09:57;;;;;;;;;;;18.90;72.20;;;;;;5011483;28;93206;-46
2023/06/07 08:12:23;;;;;;;;;;;18.90;72.20;;;;;;5012221;28;92619;-45
2023/06/07 08:14:48;;;;;;;;;;;18.90;72.20;;;;;;5012036;28;92366;-46
2023/06/07 08:17:14;;;;;;;;;;;18.90;72.20;;;;;;5010898;28;93320;-47
2023/06/07 08:19:40;;;;;;;;;;;18.80;72.20;;;;;;5010000;28;92265;-46
2023/06/07 08:22:05;;;;;;;;;;;18.90;72.20;;;;;;5009189;28;92612;-46
2023/06/07 08:24:31;;;;;;;;;;;18.90;72.30;;;;;;5010902;28;93297;-47
2023/06/07 08:26:56;;;;;;;;;;;18.90;72.30;;;;;;5012134;28;91400;-46
2023/06/07 08:29:22;;;;;;;;;;;18.90;72.30;;;;;;5009695;28;92087;-45
2023/06/07 08:31:47;;;;;;;;;;;18.90;72.30;;;;;;5011326;28;93221;-46
2023/06/07 08:34:13;;;;;;;;;;;18.90;72.40;;;;;;5011153;28;93148;-46
2023/06/07 08:36:39;;;;;;;;;;;18.90;72.30;;;;;;5010662;28;93198;-46
2023/06/07 08:39:05;;;;;;;;;;;18.90;72.30;;;;;;5012005;28;92126;-46
2023/06/07 08:41:31;;;;;;;;;;;18.90;72.40;;;;;;5010536;28;92128;-46
2023/06/07 08:43:56;;;;;;;;;;;18.90;72.30;;;;;;4990868;28;93808;-46
2023/06/07 08:46:23;;;;;;;;;;;18.90;72.30;;;;;;5012196;28;92292;-45
2023/06/07 08:48:49;;;;;;;;;;;18.90;72.30;;;;;;5009992;28;92425;-46
2023/06/07 08:51:16;;;;;;;;;;;18.90;72.30;;;;;;5009840;28;92389;-47
2023/06/07 08:53:45;;;;;;;;;;;18.90;72.30;;;;;;5012053;28;92177;-46
2023/06/07 08:56:11;;;;;;;;;;;18.90;72.20;;;;;;5013494;28;92355;-46
2023/06/07 08:58:37;;;;;;;;;;;18.90;72.30;;;;;;5011028;28;93121;-46
2023/06/07 09:01:02;;;;;;;;;;;18.90;72.30;;;;;;5008885;28;93306;-47
2023/06/07 09:03:28;;;;;;;;;;;19.00;72.30;;;;;;5010697;28;93218;-48
2023/06/07 09:05:56;;;;;;;;;;;18.90;72.30;;;;;;5010834;28;92691;-45
2023/06/07 09:08:22;;;;;;;;;;;19.00;72.50;;;;;;5011384;28;92239;-46
2023/06/07 09:10:47;;;;;;;;;;;18.90;72.50;;;;;;4990956;28;93578;-46
2023/06/07 09:13:19;;;;;;;;;;;19.00;72.60;;;;;;4987746;28;92331;-47
2023/06/07 09:15:48;;;;;;;;;;;19.00;72.50;;;;;;4994713;28;92253;-46
2023/06/07 09:18:13;;;;;;;;;;;19.00;72.40;;;;;;4990139;28;92775;-46
2023/06/07 09:20:39;;;;;;;;;;;19.00;72.60;;;;;;4989269;28;92674;-46
2023/06/07 09:23:13;;;;;;;;;;;19.00;72.60;;;;;;4989821;28;93951;-45
2023/06/07 09:25:39;;;;;;;;;;;19.00;72.70;;;;;;4990872;28;92094;-46
2023/06/07 09:28:11;;;;;;;;;;;19.00;72.50;;;;;;4988733;28;92443;-47
2023/06/07 09:30:54;;;;;;;;;;;19.10;72.70;;;;;;4989275;28;93110;-46
2023/06/07 09:33:30;;;;;;;;;;;19.10;72.60;;;;;;4989736;28;92248;-47
2023/06/07 09:36:02;;;;;;;;;;;19.00;72.60;;;;;;4988591;28;92414;-46
2023/06/07 09:38:27;;;;;;;;;;;19.10;72.70;;;;;;4993404;28;93083;-46
2023/06/07 09:40:53;;;;;;;;;;;19.10;72.80;;;;;;4988960;28;92444;-46
2023/06/07 09:43:19;;;;;;;;;;;19.00;72.80;;;;;;4990718;28;93026;-46
2023/06/07 09:45:54;;;;;;;;;;;19.10;72.80;;;;;;4989615;28;92181;-47
2023/06/07 09:48:19;;;;;;;;;;;19.10;72.80;;;;;;4986255;28;93761;-47
2023/06/07 09:50:57;;;;;;;;;;;19.10;72.70;;;;;;4989409;28;93041;-45
2023/06/07 09:53:23;;;;;;;;;;;19.10;72.70;;;;;;4987431;28;92374;-47
2023/06/07 09:55:49;;;;;;;;;;;19.10;72.60;;;;;;4990037;28;92562;-46
2023/06/07 09:58:19;;;;;;;;;;;19.10;72.60;;;;;;4988532;28;93658;-45
2023/06/07 10:00:45;;;;;;;;;;;19.10;72.50;;;;;;4991444;28;92056;-46
2023/06/07 10:03:12;;;;;;;;;;;19.10;72.50;;;;;;4989264;28;93012;-46
2023/06/07 10:05:38;;;;;;;;;;;19.10;72.50;;;;;;4990856;28;91439;-46
2023/06/07 10:08:05;;;;;;;;;;;19.10;72.70;;;;;;4988405;28;92396;-47
2023/06/07 10:10:32;;;;;;;;;;;19.10;72.60;;;;;;4988774;28;93208;-46
2023/06/07 10:12:58;;;;;;;;;;;19.20;72.60;;;;;;4990272;28;93147;-47
2023/06/07 10:15:24;;;;;;;;;;;19.20;72.50;;;;;;5010627;28;93486;-46
2023/06/07 10:18:08;;;;;;;;;;;19.20;72.70;;;;;;5008285;28;92230;-48
2023/06/07 10:20:35;;;;;;;;;;;19.20;72.60;;;;;;5008785;28;92165;-47
2023/06/07 10:23:26;;;;;;;;;;;19.20;72.50;;;;;;5011426;28;92541;-46
2023/06/07 10:25:54;;;;;;;;;;;19.20;72.50;;;;;;5010183;28;92571;-46
2023/06/07 10:28:37;;;;;;;;;;;19.20;72.50;;;;;;5008550;28;92580;-46
2023/06/07 10:31:05;;;;;;;;;;;19.20;72.60;;;;;;5008124;28;92302;-46
2023/06/07 10:33:32;;;;;;;;;;;19.30;72.50;;;;;;5008551;28;92102;-46
2023/06/07 10:35:58;;;;;;;;;;;19.30;72.50;;;;;;5010480;28;92466;-45
2023/06/07 10:38:24;;;;;;;;;;;19.30;72.60;;;;;;5006964;28;94258;-46
2023/06/07 10:40:51;;;;;;;;;;;19.30;72.50;;;;;;5009411;28;92055;-47
2023/06/07 10:43:17;;;;;;;;;;;19.30;72.50;;;;;;5007614;28;92465;-47
2023/06/07 10:45:42;;;;;;;;;;;19.30;72.50;;;;;;5012388;28;93165;-45
2023/06/07 10:48:26;;;;;;;;;;;19.30;72.60;;;;;;5008727;28;92534;-46
2023/06/07 10:50:52;;;;;;;;;;;19.30;72.60;;;;;;5008213;28;93206;-46
2023/06/07 10:53:18;;;;;;;;;;;19.30;72.50;;;;;;5008043;28;92150;-46
2023/06/07 10:55:43;;;;;;;;;;;19.30;72.60;;;;;;5010018;28;92992;-46
2023/06/07 10:58:41;;;;;;;;;;;19.30;72.50;;;;;;5007648;28;93315;-45
2023/06/07 11:01:21;;;;;;;;;;;19.40;72.60;;;;;;4965745;28;92165;-46
2023/06/07 11:03:48;;;;;;;;;;;19.40;72.40;;;;;;5008494;28;93647;-46
2023/06/07 11:06:14;;;;;;;;;;;19.40;72.50;;;;;;5006715;28;92928;-46
2023/06/07 11:08:40;;;;;;;;;;;19.40;72.60;;;;;;5013435;28;93158;-46
2023/06/07 11:11:26;;;;;;;;;;;19.50;72.60;;;;;;5006927;28;94435;-46
2023/06/07 11:13:54;;;;;;;;;;;19.50;72.50;;;;;;5007847;28;92205;-46
2023/06/07 11:16:22;;;;;;;;;;;19.50;72.50;;;;;;5007274;28;92396;-46
2023/06/07 11:18:55;;;;;;;;;;;19.50;72.50;;;;;;5008424;28;93195;-45
2023/06/07 11:21:20;;;;;;;;;;;19.50;72.50;;;;;;5010438;28;91417;-46
2023/06/07 11:24:06;;;;;;;;;;;19.50;72.50;;;;;;4988890;28;93289;-46
2023/06/07 11:26:34;;;;;;;;;;;19.50;72.50;;;;;;5008725;28;92624;-46
2023/06/07 11:29:00;;;;;;;;;;;19.60;72.60;;;;;;5011234;28;93405;-46
2023/06/07 11:31:25;;;;;;;;;;;19.60;72.70;;;;;;5006506;28;93651;-46
2023/06/07 11:33:51;;;;;;;;;;;19.60;72.70;;;;;;5006982;28;92229;-46
2023/06/07 11:36:17;;;;;;;;;;;19.60;72.60;;;;;;5008721;28;92342;-46
2023/06/07 11:38:47;;;;;;;;;;;19.60;72.60;;;;;;5008698;28;92279;-46
2023/06/07 11:41:13;;;;;;;;;;;19.60;72.50;;;;;;5007155;28;92195;-46
2023/06/07 11:43:38;;;;;;;;;;;19.60;72.50;;;;;;5008140;28;92459;-46
2023/06/07 11:46:04;;;;;;;;;;;19.60;72.50;;;;;;5007225;28;92479;-46
2023/06/07 11:48:30;;;;;;;;;;;19.70;72.50;;;;;;5009436;28;92155;-46
2023/06/07 11:50:56;;;;;;;;;;;19.70;72.50;;;;;;5010426;28;92641;-46
2023/06/07 11:53:22;;;;;;;;;;;19.70;72.60;;;;;;5006983;28;93019;-46
2023/06/07 11:55:48;;;;;;;;;;;19.70;72.50;;;;;;5009977;28;93366;-46
2023/06/07 11:58:13;;;;;;;;;;;19.80;72.50;;;;;;5006780;28;93118;-46
2023/06/07 12:00:41;;;;;;;;;;;19.70;72.40;;;;;;5007672;28;92149;-46
2023/06/07 12:03:07;;;;;;;;;;;19.70;72.50;;;;;;5009380;28;92489;-46
2023/06/07 12:05:34;;;;;;;;;;;19.80;72.50;;;;;;5006528;28;93194;-46
2023/06/07 12:08:01;;;;;;;;;;;19.80;72.50;;;;;;5007281;28;92521;-46
2023/06/07 12:10:27;;;;;;;;;;;19.80;72.50;;;;;;5009205;28;92397;-45
2023/06/07 12:13:09;;;;;;;;;;;19.80;72.50;;;;;;5011057;28;93043;-46
2023/06/07 12:15:40;;;;;;;;;;;19.80;72.50;;;;;;5009650;28;92438;-48
2023/06/07 12:18:05;;;;;;;;;;;19.80;72.40;;;;;;5009917;28;94223;-47
2023/06/07 12:20:32;;;;;;;;;;;19.90;72.30;;;;;;5012612;28;92100;-46
2023/06/07 12:23:04;;;;;;;;;;;19.90;72.20;;;;;;5009930;28;92933;-47
2023/06/07 12:25:29;;;;;;;;;;;19.90;72.20;;;;;;5008928;28;92942;-46
2023/06/07 12:27:55;;;;;;;;;;;19.90;72.20;;;;;;5012305;28;92353;-46
2023/06/07 12:30:20;;;;;;;;;;;19.90;72.20;;;;;;5009559;28;92520;-47
2023/06/07 12:32:46;;;;;;;;;;;19.90;72.10;;;;;;5009184;28;93387;-46
2023/06/07 12:35:12;;;;;;;;;;;19.90;72.10;;;;;;5015485;28;91386;-46
2023/06/07 12:37:37;;;;;;;;;;;20.00;72.00;;;;;;5008289;28;94592;-46
2023/06/07 12:40:07;;;;;;;;;;;20.00;72.00;;;;;;5012146;28;92242;-46
2023/06/07 12:42:37;;;;;;;;;;;20.00;72.00;;;;;;5011468;28;94214;-46
2023/06/07 12:45:03;;;;;;;;;;;20.00;71.90;;;;;;5009529;28;93337;-46
2023/06/07 12:47:29;;;;;;;;;;;20.00;71.90;;;;;;5009647;28;92205;-45
2023/06/07 12:49:54;;;;;;;;;;;20.00;71.90;;;;;;5011743;28;92524;-45
2023/06/07 12:52:20;;;;;;;;;;;20.10;72.00;;;;;;5008490;28;94399;-46
2023/06/07 12:54:46;;;;;;;;;;;20.10;71.90;;;;;;5010322;28;92527;-46
2023/06/07 12:57:11;;;;;;;;;;;20.10;71.80;;;;;;5012288;28;92565;-46
2023/06/07 12:59:37;;;;;;;;;;;20.10;71.70;;;;;;5009369;28;91542;-48
2023/06/07 13:02:02;;;;;;;;;;;20.10;71.50;;;;;;5010539;28;92078;-47
2023/06/07 13:04:28;;;;;;;;;;;20.20;71.60;;;;;;5009767;28;93837;-45
2023/06/07 13:06:53;;;;;;;;;;;20.10;71.80;;;;;;5008103;28;93120;-46
2023/06/07 13:09:19;;;;;;;;;;;20.20;71.70;;;;;;5010991;28;93427;-46
2023/06/07 13:11:44;;;;;;;;;;;20.20;72.20;;;;;;5008728;28;93360;-46
2023/06/07 13:14:10;;;;;;;;;;;20.20;71.70;;;;;;4988677;28;92229;-46
2023/06/07 13:16:36;;;;;;;;;;;20.20;72.20;;;;;;4991637;28;92368;-45
2023/06/07 13:19:02;;;;;;;;;;;20.20;71.80;;;;;;4989990;28;92267;-46
2023/06/07 13:21:28;;;;;;;;;;;20.10;72.00;;;;;;4990921;28;92405;-46
2023/06/07 13:23:53;;;;;;;;;;;20.10;72.10;;;;;;4988096;28;92382;-46
2023/06/07 13:26:19;;;;;;;;;;;20.10;72.10;;;;;;4991498;28;92221;-46
2023/06/07 13:28:46;;;;;;;;;;;20.10;72.40;;;;;;4990420;28;92344;-47
2023/06/07 13:31:12;;;;;;;;;;;20.10;72.50;;;;;;4987012;28;95362;-46
2023/06/07 13:33:37;;;;;;;;;;;20.10;72.60;;;;;;4991135;28;92264;-46
2023/06/07 13:36:03;;;;;;;;;;;20.10;72.50;;;;;;4990227;28;92566;-46
2023/06/07 13:38:29;;;;;;;;;;;20.20;72.40;;;;;;4990859;28;92938;-46
2023/06/07 13:40:54;;;;;;;;;;;20.10;72.60;;;;;;4991584;28;92458;-47
2023/06/07 13:43:20;;;;;;;;;;;20.10;72.70;;;;;;4988794;28;92214;-46
2023/06/07 13:45:45;;;;;;;;;;;20.10;72.60;;;;;;4990191;28;92221;-46
2023/06/07 13:48:11;;;;;;;;;;;20.10;72.60;;;;;;4988555;28;92492;-46
2023/06/07 13:50:40;;;;;;;;;;;20.10;72.70;;;;;;4990222;28;93055;-46
2023/06/07 13:53:06;;;;;;;;;;;20.10;72.70;;;;;;4990250;28;92196;-46
2023/06/07 13:55:31;;;;;;;;;;;20.10;72.80;;;;;;4987804;28;93369;-46
2023/06/07 13:57:57;;;;;;;;;;;20.10;72.80;;;;;;4990901;28;93208;-46
2023/06/07 14:00:23;;;;;;;;;;;20.10;72.70;;;;;;4992604;28;92057;-46
2023/06/07 14:02:48;;;;;;;;;;;20.10;72.70;;;;;;4990112;28;95238;-46
2023/06/07 14:05:14;;;;;;;;;;;20.20;72.70;;;;;;4988332;28;92256;-46
2023/06/07 14:07:40;;;;;;;;;;;20.20;72.50;;;;;;4989801;28;92502;-46
2023/06/07 14:10:07;;;;;;;;;;;20.20;72.80;;;;;;4989884;28;93627;-46
2023/06/07 14:12:32;;;;;;;;;;;20.30;72.50;;;;;;4989067;28;91882;-46
2023/06/07 14:14:58;;;;;;;;;;;20.40;72.40;;;;;;4987271;28;93469;-47